Time;durP1;ratioP1;P1;durP2;ratioP2;P2;SDS_P1;SDS_P2;PMS_P1;PMS_P2;Temp;Humidity;BMP_temperature;BMP_pressure;BME280_temperature;BME280_humidity;BME280_pressure;Samples;Min_cycle;Max_cycle;Signal;HPM_P1;HPM_P2
2023/07/15 00:02:55;;;;;;;12.18;3.62;;;;;;;19.31;79.16;100645.28;5074537;57;1139156;-71
2023/07/15 00:07:57;;;;;;;6.58;3.58;;;;;;;19.40;79.27;100636.73;5053271;57;1140680;-71
2023/07/15 00:13:02;;;;;;;6.12;3.77;;;;;;;19.42;78.73;100637.36;5054364;57;1138389;-72
2023/07/15 00:18:14;;;;;;;5.50;3.40;;;;;;;19.36;78.42;100640.25;5066406;57;1138432;-72
2023/07/15 00:23:29;;;;;;;3.72;3.42;;;;;;;19.38;78.68;100632.88;4949354;58;1138467;-71
2023/07/15 00:28:36;;;;;;;6.97;3.12;;;;;;;19.33;77.92;100631.20;4924799;57;1138916;-72
2023/07/15 00:33:42;;;;;;;4.03;3.55;;;;;;;19.20;77.98;100626.89;4999129;57;1138937;-72
2023/07/15 00:38:48;;;;;;;8.98;4.28;;;;;;;19.09;77.98;100623.24;5017855;57;1138771;-72
2023/07/15 00:43:58;;;;;;;5.12;3.50;;;;;;;19.09;78.30;100625.42;4997828;57;1138506;-72
2023/07/15 00:49:21;;;;;;;5.08;4.00;;;;;;;19.00;78.09;100623.75;4998105;57;1138534;-72
2023/07/15 00:54:27;;;;;;;3.60;3.30;;;;;;;19.01;78.47;100626.77;5018569;57;1138727;-72
2023/07/15 00:59:42;;;;;;;5.50;3.12;;;;;;;18.73;77.46;100612.08;4943180;57;1138416;-72
2023/07/15 01:04:44;;;;;;;4.72;4.15;;;;;;;18.73;77.46;100612.08;4997208;57;1138542;-72
2023/07/15 01:09:51;;;;;;;8.30;3.40;;;;;;;18.68;78.63;100617.09;5017549;57;1138853;-72
2023/07/15 01:14:56;;;;;;;8.38;3.47;;;;;;;18.58;78.54;100611.42;4998703;57;1138533;-72
2023/07/15 01:20:03;;;;;;;8.45;3.83;;;;;;;18.53;78.79;100599.49;4998540;57;1138992;-71
2023/07/15 01:25:10;;;;;;;7.42;3.20;;;;;;;18.55;78.81;100593.47;4950770;58;1138617;-71
2023/07/15 01:30:16;;;;;;;7.50;3.26;;;;;;;18.45;78.66;100599.02;5013406;57;1138745;-73
2023/07/15 01:35:22;;;;;;;6.25;4.05;;;;;;;18.41;79.37;100588.80;4983766;57;1138767;-72
2023/07/15 01:40:28;;;;;;;7.12;4.08;;;;;;;18.54;79.99;100597.16;5018080;57;1138784;-71
2023/07/15 01:45:33;;;;;;;6.70;3.40;;;;;;;18.57;79.98;100593.64;4998671;57;1139002;-72
2023/07/15 01:50:39;;;;;;;7.17;3.40;;;;;;;18.56;79.03;100591.97;4998596;57;1138630;-71
2023/07/15 01:55:45;;;;;;;12.88;5.03;;;;;;;18.45;79.02;100598.17;4998274;57;1138836;-71
2023/07/15 02:00:50;;;;;;;14.35;3.87;;;;;;;18.50;79.64;100592.63;5017035;57;1140869;-72
2023/07/15 02:05:56;;;;;;;9.00;3.58;;;;;;;18.49;79.47;100591.45;4959066;57;1140790;-71
2023/07/15 02:11:02;;;;;;;4.15;3.17;;;;;;;18.46;79.28;100588.63;4914303;58;1138845;-71
2023/07/15 02:16:07;;;;;;;7.17;3.52;;;;;;;18.37;79.11;100590.96;4933454;58;1138675;-71
2023/07/15 02:21:13;;;;;;;10.53;3.17;;;;;;;18.18;78.96;100584.09;4921954;57;1138849;-71
2023/07/15 02:26:19;;;;;;;8.25;3.05;;;;;;;18.04;79.58;100585.25;4965531;57;1141013;-71
2023/07/15 02:31:25;;;;;;;9.25;3.00;;;;;;;17.93;80.25;100577.05;4988391;57;1138833;-72
2023/07/15 02:36:31;;;;;;;7.28;4.22;;;;;;;17.83;80.49;100567.01;4969401;57;1138658;-72
2023/07/15 02:41:36;;;;;;;9.33;4.07;;;;;;;17.85;81.19;100557.82;4969012;57;1138598;-71
2023/07/15 02:46:42;;;;;;;14.13;3.90;;;;;;;17.93;81.77;100550.29;4969316;57;1139085;-71
2023/07/15 02:51:49;;;;;;;3.92;3.52;;;;;;;18.03;81.85;100559.48;4977331;57;1140770;-72
2023/07/15 02:56:56;;;;;;;9.53;3.62;;;;;;;18.06;81.76;100552.47;4930319;57;1138673;-71
2023/07/15 03:02:02;;;;;;;10.10;4.08;;;;;;;18.11;81.97;100551.48;4970406;57;1138611;-72
2023/07/15 03:07:13;;;;;;;8.83;4.90;;;;;;;18.19;82.33;100546.11;5000807;57;1140930;-72
2023/07/15 03:12:18;;;;;;;8.13;5.28;;;;;;;18.23;82.13;100545.62;4968898;57;1138720;-72
2023/07/15 03:17:24;;;;;;;11.20;4.37;;;;;;;18.28;81.89;100545.95;4968720;57;1138765;-72
2023/07/15 03:22:31;;;;;;;5.05;3.22;;;;;;;18.34;82.04;100549.78;4988509;57;1140969;-71
2023/07/15 03:27:37;;;;;;;6.93;4.10;;;;;;;18.31;81.46;100548.81;4959254;57;1138981;-71
2023/07/15 03:32:45;;;;;;;4.75;3.08;;;;;;;18.34;81.93;100544.93;4959752;57;1139217;-71
2023/07/15 03:37:52;;;;;;;12.35;4.00;;;;;;;18.33;81.67;100541.45;4978519;57;1138871;-71
2023/07/15 03:42:58;;;;;;;8.05;3.75;;;;;;;18.26;81.43;100549.30;4958825;57;1140915;-72
2023/07/15 03:48:05;;;;;;;5.80;3.40;;;;;;;18.27;81.89;100538.93;4951385;57;1138874;-71
2023/07/15 03:53:10;;;;;;;6.33;3.40;;;;;;;18.31;81.56;100531.91;4949621;58;1138672;-71
2023/07/15 03:58:16;;;;;;;8.25;4.33;;;;;;;18.33;81.35;100537.44;4930802;58;1138922;-71
2023/07/15 04:03:21;;;;;;;4.40;3.80;;;;;;;18.37;82.18;100532.05;4977154;57;1138753;-72
2023/07/15 04:08:27;;;;;;;9.58;4.40;;;;;;;18.51;82.43;100525.16;4981318;57;1138902;-71
2023/07/15 04:13:33;;;;;;;5.58;3.65;;;;;;;18.56;82.40;100519.64;4959817;57;1138647;-71
2023/07/15 04:18:38;;;;;;;7.92;4.20;;;;;;;18.61;82.22;100509.30;5040308;56;1138565;-70
2023/07/15 04:23:44;;;;;;;8.67;3.30;;;;;;;18.55;81.89;100507.25;5010494;56;1138758;-72
2023/07/15 04:28:51;;;;;;;9.53;3.50;;;;;;;18.59;82.00;100507.79;5002990;57;1139092;-72
2023/07/15 04:33:57;;;;;;;8.98;3.87;;;;;;;18.66;81.87;100511.94;4972589;58;1138628;-71
2023/07/15 04:39:03;;;;;;;8.70;3.77;;;;;;;18.74;81.72;100515.95;4991186;57;1138912;-72
2023/07/15 04:44:09;;;;;;;13.13;3.58;;;;;;;18.81;81.03;100519.09;5037077;57;1138876;-71
2023/07/15 04:49:15;;;;;;;6.75;3.42;;;;;;;18.84;80.74;100509.38;5011237;57;1140704;-73
2023/07/15 04:54:21;;;;;;;6.75;3.80;;;;;;;18.93;80.63;100521.77;5021344;57;1138998;-72
2023/07/15 04:59:27;;;;;;;7.97;4.03;;;;;;;19.01;80.29;100524.91;5086454;56;1138631;-72
2023/07/15 05:04:33;;;;;;;8.98;3.33;;;;;;;19.08;80.17;100526.40;5055121;57;1138622;-71
2023/07/15 05:09:39;;;;;;;12.93;4.37;;;;;;;19.13;80.51;100519.48;5054992;57;1138699;-71
2023/07/15 05:14:45;;;;;;;11.33;3.93;;;;;;;19.17;80.37;100510.59;5055026;57;1140847;-72
2023/07/15 05:19:51;;;;;;;4.28;3.33;;;;;;;19.25;80.61;100507.86;5074661;57;1140873;-72
2023/07/15 05:24:57;;;;;;;16.75;3.85;;;;;;;19.37;80.75;100499.77;4981103;57;1138866;-72
2023/07/15 05:30:03;;;;;;;9.98;3.58;;;;;;;19.62;80.77;100488.41;4942499;57;1140798;-71
2023/07/15 05:35:08;;;;;;;4.25;3.75;;;;;;;19.85;80.63;100493.79;4933390;58;1139433;-72
2023/07/15 05:40:14;;;;;;;5.00;3.22;;;;;;;19.96;79.82;100493.36;4915076;58;1138934;-72
2023/07/15 05:45:23;;;;;;;8.32;3.22;;;;;;;20.00;79.74;100495.52;4932911;58;1139177;-73
2023/07/15 05:50:32;;;;;;;7.72;2.77;;;;;;;20.16;80.65;100497.22;4923789;58;1138914;-72
2023/07/15 05:55:36;;;;;;;6.03;2.83;;;;;;;20.37;80.88;100487.13;4918867;57;1138861;-72
2023/07/15 06:00:42;;;;;;;19.17;3.55;;;;;;;20.60;80.97;100482.54;4918677;58;1139081;-72
2023/07/15 06:05:47;;;;;;;7.67;3.25;;;;;;;20.86;80.01;100490.63;4935452;58;1140854;-73
2023/07/15 06:10:53;;;;;;;10.75;3.42;;;;;;;21.12;80.49;100489.62;4914255;58;1138702;-72
2023/07/15 06:15:59;;;;;;;10.43;3.62;;;;;;;21.36;77.93;100488.00;4914285;58;1141032;-72
2023/07/15 06:21:04;;;;;;;12.58;6.95;;;;;;;21.57;78.57;100482.30;4941577;57;1140920;-72
2023/07/15 06:26:10;;;;;;;9.83;4.87;;;;;;;21.85;77.42;100476.98;4917780;57;1140838;-71
2023/07/15 06:31:15;;;;;;;5.40;2.62;;;;;;;22.08;74.31;100465.53;4930468;57;1138738;-72
2023/07/15 06:36:22;;;;;;;5.75;2.60;;;;;;;22.29;72.40;100472.23;4979609;57;1138894;-73
2023/07/15 06:41:28;;;;;;;7.12;3.00;;;;;;;22.50;69.90;100477.22;5009863;57;1138811;-72
2023/07/15 06:46:34;;;;;;;6.03;3.12;;;;;;;22.64;70.49;100469.02;4803999;58;1139033;-72
2023/07/15 06:51:39;;;;;;;4.04;3.08;;;;;;;22.90;69.87;100466.20;5011714;57;1141950;-72
2023/07/15 06:56:45;;;;;;;7.87;3.22;;;;;;;23.12;69.34;100456.42;5030947;57;1138653;-72
2023/07/15 07:01:50;;;;;;;7.20;3.87;;;;;;;23.40;69.89;100458.16;5007987;57;1138712;-72
2023/07/15 07:06:56;;;;;;;11.48;6.65;;;;;;;23.69;69.74;100452.42;5010525;56;1138618;-71
2023/07/15 07:12:02;;;;;;;14.68;4.40;;;;;;;23.90;66.54;100451.93;5030455;57;1140999;-73
2023/07/15 07:17:07;;;;;;;4.85;2.90;;;;;;;23.97;65.94;100450.08;5010880;57;1140889;-71
2023/07/15 07:22:13;;;;;;;4.47;2.60;;;;;;;24.23;67.32;100447.88;4991811;57;1138951;-72
2023/07/15 07:27:19;;;;;;;5.70;2.90;;;;;;;24.50;64.46;100438.70;4992554;57;1138657;-72
2023/07/15 07:32:25;;;;;;;7.42;3.42;;;;;;;24.74;62.98;100431.78;4975190;57;1138698;-72
2023/07/15 07:37:30;;;;;;;5.92;3.02;;;;;;;24.94;65.83;100430.36;4999036;57;1138760;-73
2023/07/15 07:42:36;;;;;;;3.87;3.33;;;;;;;25.17;65.15;100427.45;4996888;57;1138883;-71
2023/07/15 07:47:41;;;;;;;5.60;3.75;;;;;;;25.37;60.32;100425.97;5013901;57;1139082;-72
2023/07/15 07:52:47;;;;;;;8.80;3.60;;;;;;;25.46;62.00;100427.91;4988498;57;1138723;-73
2023/07/15 07:57:53;;;;;;;4.92;3.05;;;;;;;25.61;60.98;100431.14;4998931;57;1138617;-73
2023/07/15 08:02:58;;;;;;;5.72;3.00;;;;;;;25.75;60.68;100429.19;5002679;57;1138992;-72
2023/07/15 08:08:04;;;;;;;6.58;3.02;;;;;;;25.98;61.23;100429.40;4987959;57;1138823;-72
2023/07/15 08:13:10;;;;;;;7.00;3.00;;;;;;;26.16;57.03;100422.67;4998618;57;1139006;-73
2023/07/15 08:18:15;;;;;;;5.85;3.67;;;;;;;26.29;58.68;100421.73;5017262;57;1139173;-73
2023/07/15 08:23:21;;;;;;;5.03;2.87;;;;;;;26.45;58.12;100420.33;4990963;57;1138705;-73
2023/07/15 08:28:26;;;;;;;6.87;3.17;;;;;;;26.61;56.82;100418.38;4998891;57;1138933;-73
2023/07/15 08:33:32;;;;;;;4.08;3.15;;;;;;;26.71;57.63;100412.44;5018173;57;1138682;-73
2023/07/15 08:38:38;;;;;;;4.62;3.35;;;;;;;26.82;57.02;100402.17;5055071;56;1138794;-73
2023/07/15 08:43:45;;;;;;;4.47;2.77;;;;;;;26.95;58.53;100396.06;5013899;57;1138873;-72
2023/07/15 08:48:51;;;;;;;4.65;2.92;;;;;;;27.22;55.20;100406.55;5074874;56;1138673;-73
2023/07/15 08:53:58;;;;;;;6.17;3.37;;;;;;;27.39;56.66;100406.73;5036985;56;1139026;-72
2023/07/15 08:59:06;;;;;;;5.72;2.52;;;;;;;27.49;53.00;100400.23;5072573;56;1138606;-73
2023/07/15 09:04:12;;;;;;;7.10;2.65;;;;;;;27.58;51.32;100401.56;5124435;56;1138991;-73
2023/07/15 09:09:17;;;;;;;5.83;2.77;;;;;;;27.76;53.97;100402.84;5030912;56;1138906;-75
2023/07/15 09:14:23;;;;;;;5.22;2.72;;;;;;;27.93;51.03;100402.45;4999709;56;1138744;-75
2023/07/15 09:19:37;;;;;;;5.50;2.37;;;;;;;28.07;50.41;100400.86;5047102;56;1138659;-74
2023/07/15 09:24:40;;;;;;;8.03;2.47;;;;;;;28.25;52.16;100391.25;5040288;57;1138759;-75
2023/07/15 09:29:52;;;;;;;9.83;2.90;;;;;;;28.48;49.72;100387.66;5041353;57;1138815;-75
2023/07/15 09:34:57;;;;;;;3.83;2.77;;;;;;;28.64;48.55;100386.91;5069301;56;1138869;-76
2023/07/15 09:40:10;;;;;;;18.87;6.30;;;;;;;28.79;49.14;100377.73;5054677;56;1138627;-77
2023/07/15 09:45:35;;;;;;;38.40;10.35;;;;;;;29.01;48.60;100368.36;5054772;56;1140948;-73
2023/07/15 09:50:45;;;;;;;9.18;3.25;;;;;;;29.25;48.66;100373.97;5055070;56;1143076;-75
2023/07/15 09:55:51;;;;;;;4.60;2.22;;;;;;;29.43;46.35;100370.23;5074676;56;1138364;-76
2023/07/15 10:01:14;;;;;;;4.87;2.37;;;;;;;29.51;43.57;100360.28;5046624;56;1138630;-77
2023/07/15 10:06:20;;;;;;;4.62;2.35;;;;;;;29.51;44.31;100360.28;4999423;57;1138669;-76
2023/07/15 10:11:26;;;;;;;3.90;2.20;;;;;;;29.61;42.25;100345.47;5035175;56;1138906;-76
2023/07/15 10:16:37;;;;;;;4.87;2.75;;;;;;;29.80;43.54;100351.47;5043580;56;1138668;-73
2023/07/15 10:21:49;;;;;;;2.40;1.80;;;;;;;29.99;41.27;100352.89;5044048;56;1138847;-75
2023/07/15 10:26:55;;;;;;;6.30;2.50;;;;;;;30.07;42.39;100340.20;5048528;56;1138711;-73
2023/07/15 10:32:20;;;;;;;5.08;2.50;;;;;;;30.33;42.57;100341.36;5056850;56;1138868;-75
2023/07/15 10:37:24;;;;;;;5.53;2.55;;;;;;;30.41;42.82;100337.35;5026318;56;1138957;-76
2023/07/15 10:42:35;;;;;;;2.37;2.17;;;;;;;30.61;39.98;100342.27;4980757;57;1138895;-72
2023/07/15 10:47:46;;;;;;;2.42;2.22;;;;;;;30.70;38.88;100341.59;4954872;56;1138685;-76
2023/07/15 10:52:51;;;;;;;11.85;3.08;;;;;;;30.92;41.66;100339.34;5021274;56;1138984;-73
2023/07/15 10:57:57;;;;;;;5.50;2.30;;;;;;;31.03;39.76;100331.53;5008596;56;1140880;-73
2023/07/15 11:03:04;;;;;;;6.75;3.40;;;;;;;31.17;39.13;100330.62;4919128;57;1138810;-74
2023/07/15 11:08:10;;;;;;;3.50;3.17;;;;;;;31.31;38.17;100319.55;4956485;57;1138758;-75
2023/07/15 11:13:18;;;;;;;8.33;3.75;;;;;;;31.42;36.75;100313.08;4911080;57;1138568;-72
2023/07/15 11:18:27;;;;;;;6.33;3.90;;;;;;;31.39;36.15;100322.62;4952231;57;1139073;-73
2023/07/15 11:23:33;;;;;;;9.75;2.80;;;;;;;31.58;38.55;100314.02;4952425;57;1138910;-73
2023/07/15 11:28:50;;;;;;;13.00;2.12;;;;;;;31.81;36.86;100322.68;4892948;58;1138656;-74
2023/07/15 11:33:57;;;;;;;3.37;2.50;;;;;;;31.94;35.41;100297.31;4892847;57;1141257;-73
2023/07/15 11:39:05;;;;;;;4.95;2.05;;;;;;;32.05;37.49;100295.75;4942264;57;1138912;-74
2023/07/15 11:44:24;;;;;;;4.92;2.00;;;;;;;32.22;35.94;100294.23;4994438;57;1138824;-76
2023/07/15 11:49:30;;;;;;;2.83;1.82;;;;;;;32.48;35.62;100293.22;4997058;58;1139075;-77
2023/07/15 11:54:36;;;;;;;4.24;2.06;;;;;;;32.69;34.14;100287.81;4973875;57;1138849;-73
2023/07/15 11:59:46;;;;;;;1.62;1.52;;;;;;;32.82;34.19;100284.03;4923802;57;1138777;-76
2023/07/15 12:04:52;;;;;;;2.30;1.65;;;;;;;33.00;30.20;100285.98;4923775;57;1138614;-72
2023/07/15 12:10:09;;;;;;;6.83;2.20;;;;;;;33.09;30.92;100277.48;4916417;57;1138808;-72
2023/07/15 12:15:17;;;;;;;1.87;1.70;;;;;;;33.20;30.12;100277.75;4973702;57;1138604;-72
2023/07/15 12:20:23;;;;;;;4.23;1.80;;;;;;;33.26;30.33;100278.06;4995055;57;1138996;-72
2023/07/15 12:25:29;;;;;;;2.83;1.95;;;;;;;33.42;32.62;100268.73;4948742;58;1138878;-74
2023/07/15 12:30:34;;;;;;;9.40;3.80;;;;;;;33.51;30.58;100264.87;5020422;56;1138799;-72
2023/07/15 12:35:40;;;;;;;4.58;4.10;;;;;;;33.54;30.07;100245.13;4937444;57;1138859;-72
2023/07/15 12:40:48;;;;;;;3.20;1.80;;;;;;;33.63;29.73;100245.37;4935670;57;1138941;-72
2023/07/15 12:45:54;;;;;;;2.27;2.08;;;;;;;33.67;28.91;100251.41;4994935;57;1138945;-72
2023/07/15 12:51:00;;;;;;;3.45;1.77;;;;;;;33.66;28.25;100232.47;5020857;56;1138977;-72
2023/07/15 12:56:11;;;;;;;2.20;2.00;;;;;;;33.67;26.58;100256.06;5055396;56;1138774;-72
2023/07/15 13:01:13;;;;;;;2.45;1.80;;;;;;;33.71;29.13;100233.30;5074858;56;1138875;-72
2023/07/15 13:06:19;;;;;;;5.72;2.58;;;;;;;33.74;26.81;100228.62;5054372;56;1138683;-72
2023/07/15 13:11:24;;;;;;;4.17;2.40;;;;;;;33.84;28.01;100241.52;5054724;56;1138623;-72
2023/07/15 13:16:30;;;;;;;5.92;4.90;;;;;;;33.92;25.22;100233.27;5054970;57;1138815;-73
2023/07/15 13:21:36;;;;;;;2.73;2.03;;;;;;;33.87;27.07;100232.18;5032259;57;1138917;-72
2023/07/15 13:26:42;;;;;;;3.90;3.53;;;;;;;33.98;27.22;100232.13;4972348;57;1138832;-73
2023/07/15 13:31:48;;;;;;;2.98;2.08;;;;;;;34.02;26.00;100236.79;4992178;58;1138628;-72
2023/07/15 13:36:53;;;;;;;2.10;1.70;;;;;;;34.08;27.00;100227.41;4972831;58;1138560;-73
2023/07/15 13:41:59;;;;;;;4.15;2.27;;;;;;;34.18;27.17;100228.76;5052244;57;1138598;-73
2023/07/15 13:47:06;;;;;;;8.08;1.70;;;;;;;34.37;27.60;100211.67;5070322;56;1138992;-73
2023/07/15 13:52:12;;;;;;;7.83;1.90;;;;;;;34.49;26.55;100203.34;4980658;57;1138895;-72
2023/07/15 13:57:17;;;;;;;7.47;2.42;;;;;;;34.61;26.81;100198.05;4966243;57;1138773;-72
2023/07/15 14:02:23;;;;;;;4.03;2.35;;;;;;;34.62;25.88;100210.13;4998580;57;1138732;-72
2023/07/15 14:07:29;;;;;;;2.58;2.35;;;;;;;34.62;25.43;100194.20;5033987;57;1138609;-73
2023/07/15 14:12:35;;;;;;;7.37;2.22;;;;;;;34.73;26.09;100198.50;5043483;56;1138838;-74
2023/07/15 14:17:41;;;;;;;2.50;1.78;;;;;;;34.87;26.76;100192.64;5039213;56;1139086;-72
2023/07/15 14:22:46;;;;;;;2.35;1.77;;;;;;;35.04;26.81;100191.67;5092107;56;1139130;-72
2023/07/15 14:27:52;;;;;;;8.03;1.87;;;;;;;35.09;26.91;100193.01;5047062;56;1138799;-72
2023/07/15 14:32:58;;;;;;;5.20;2.15;;;;;;;35.12;25.75;100190.24;5054955;57;1138763;-73
2023/07/15 14:38:04;;;;;;;1.95;1.85;;;;;;;35.13;26.04;100189.95;5074591;57;1138763;-73
2023/07/15 14:43:09;;;;;;;3.27;2.03;;;;;;;35.12;24.98;100184.19;5004490;57;1139092;-73
2023/07/15 14:48:15;;;;;;;4.47;1.60;;;;;;;35.19;24.69;100190.16;4944932;57;1138840;-72
2023/07/15 14:53:21;;;;;;;1.90;1.80;;;;;;;35.16;25.00;100193.48;4960069;57;1138672;-73
2023/07/15 14:58:27;;;;;;;1.95;1.85;;;;;;;35.07;24.78;100191.66;4985689;57;1138885;-75
2023/07/15 15:03:33;;;;;;;1.50;1.40;;;;;;;35.00;24.17;100187.85;4952821;58;1139125;-74
2023/07/15 15:08:38;;;;;;;2.15;2.00;;;;;;;34.97;24.42;100171.96;4998109;57;1139093;-73
2023/07/15 15:13:49;;;;;;;8.80;1.72;;;;;;;34.99;24.76;100177.97;5005868;57;1138740;-74
2023/07/15 15:18:54;;;;;;;4.83;1.92;;;;;;;34.96;25.48;100178.56;4953563;57;1138946;-72
2023/07/15 15:24:00;;;;;;;2.35;1.92;;;;;;;35.02;25.53;100169.15;4917522;58;1138836;-74
2023/07/15 15:29:06;;;;;;;2.45;1.70;;;;;;;35.15;25.34;100162.14;4937000;58;1139024;-73
2023/07/15 15:34:11;;;;;;;2.02;1.47;;;;;;;35.23;25.12;100152.73;4931079;58;1139006;-72
2023/07/15 15:39:17;;;;;;;6.28;1.60;;;;;;;35.24;24.04;100155.74;4998109;58;1138677;-73
2023/07/15 15:44:22;;;;;;;2.17;1.97;;;;;;;35.19;24.63;100148.09;5004424;58;1138558;-73
2023/07/15 15:49:28;;;;;;;3.55;1.90;;;;;;;35.04;24.61;100141.38;4985827;57;1138815;-73
2023/07/15 15:54:33;;;;;;;18.92;16.93;;;;;;;35.14;25.76;100139.91;4949140;57;1138858;-72
2023/07/15 15:59:39;;;;;;;2.60;2.40;;;;;;;35.17;25.41;100140.12;4858478;58;1142931;-73
2023/07/15 16:04:45;;;;;;;3.00;2.03;;;;;;;35.21;24.41;100143.13;4895725;57;1138845;-72
2023/07/15 16:09:50;;;;;;;4.12;2.12;;;;;;;35.18;24.69;100139.02;4847316;58;1139070;-74
2023/07/15 16:14:56;;;;;;;3.73;1.80;;;;;;;35.15;24.76;100135.47;4890360;57;1187138;-73
2023/07/15 16:20:05;;;;;;;2.80;2.30;;;;;;;35.11;24.65;100137.19;4834760;57;1139152;-72
2023/07/15 16:25:10;;;;;;;3.98;1.60;;;;;;;35.06;24.77;100139.98;4803623;58;1138809;-73
2023/07/15 16:30:16;;;;;;;2.40;1.57;;;;;;;35.11;25.04;100134.99;4804049;58;1138878;-67
2023/07/15 16:35:22;;;;;;;7.70;2.20;;;;;;;35.07;25.13;100137.50;4822706;58;1138835;-73
2023/07/15 16:40:27;;;;;;;2.77;2.20;;;;;;;34.95;24.92;100142.56;4846168;58;1139048;-73
2023/07/15 16:45:33;;;;;;;4.83;2.12;;;;;;;34.89;25.41;100140.41;4941121;57;1139129;-72
2023/07/15 16:50:40;;;;;;;3.52;2.25;;;;;;;34.86;25.16;100141.53;4970630;57;1138680;-73
2023/07/15 16:55:45;;;;;;;7.60;2.85;;;;;;;34.85;26.09;100135.77;4916671;57;1138571;-73
2023/07/15 17:00:52;;;;;;;4.35;2.58;;;;;;;34.84;26.44;100131.38;4801263;59;1138796;-73
2023/07/15 17:05:57;;;;;;;4.08;1.90;;;;;;;34.85;26.76;100127.53;4858026;58;1139035;-72
2023/07/15 17:11:03;;;;;;;3.80;1.80;;;;;;;34.77;26.46;100124.05;4906393;58;1138863;-72
2023/07/15 17:16:09;;;;;;;3.30;2.87;;;;;;;34.58;26.35;100121.97;4895139;58;1138716;-72
2023/07/15 17:21:14;;;;;;;2.30;2.10;;;;;;;34.48;27.27;100128.10;4903378;58;1139215;-72
2023/07/15 17:26:20;;;;;;;2.20;1.90;;;;;;;34.39;27.14;100125.69;4899619;58;1138704;-73
2023/07/15 17:31:25;;;;;;;8.93;1.77;;;;;;;34.31;27.63;100119.44;4892621;57;1138746;-72
2023/07/15 17:36:31;;;;;;;2.52;1.92;;;;;;;34.22;27.99;100133.72;4803814;59;1138891;-72
2023/07/15 17:41:37;;;;;;;3.32;2.12;;;;;;;34.12;27.71;100129.69;4810039;58;1138730;-75
2023/07/15 17:46:43;;;;;;;5.25;2.02;;;;;;;33.98;28.12;100135.53;4823102;59;1139105;-72
2023/07/15 17:51:48;;;;;;;7.53;2.08;;;;;;;33.90;28.66;100124.34;4998683;57;1139066;-72
2023/07/15 17:56:56;;;;;;;5.47;3.07;;;;;;;33.86;28.83;100137.25;4995036;57;1138843;-73
2023/07/15 18:02:01;;;;;;;5.78;2.47;;;;;;;33.74;28.88;100133.98;4956317;58;1138900;-73
2023/07/15 18:07:07;;;;;;;3.95;2.75;;;;;;;33.57;28.88;100133.50;5041610;57;1138713;-72
2023/07/15 18:12:13;;;;;;;4.30;2.47;;;;;;;33.36;29.52;100142.89;4957249;57;1138880;-72
2023/07/15 18:17:19;;;;;;;5.33;2.90;;;;;;;33.22;29.82;100150.84;4980174;57;1138786;-72
2023/07/15 18:22:24;;;;;;;5.05;3.22;;;;;;;33.02;30.08;100149.49;4967973;57;1138803;-72
2023/07/15 18:27:30;;;;;;;8.78;3.15;;;;;;;32.84;30.77;100155.84;4998738;57;1138626;-72
2023/07/15 18:32:36;;;;;;;23.95;9.13;;;;;;;32.66;31.61;100146.76;5017426;57;1138796;-72
2023/07/15 18:37:41;;;;;;;32.42;11.15;;;;;;;32.43;32.72;100139.89;4997806;57;1140892;-72
2023/07/15 18:42:47;;;;;;;22.58;5.97;;;;;;;32.30;34.35;100146.44;4980610;57;1142829;-72
2023/07/15 18:47:52;;;;;;;9.45;5.20;;;;;;;32.16;35.59;100151.03;4934107;58;1140717;-72
2023/07/15 18:52:58;;;;;;;9.58;4.47;;;;;;;32.09;36.58;100149.09;4949878;57;1138845;-72
2023/07/15 18:58:04;;;;;;;7.70;4.50;;;;;;;31.92;36.94;100145.78;5012417;57;1138839;-72
2023/07/15 19:03:10;;;;;;;7.25;3.92;;;;;;;31.87;37.72;100153.96;5025429;56;1138884;-72
2023/07/15 19:08:15;;;;;;;12.45;4.00;;;;;;;31.71;38.54;100157.17;5034260;56;1138847;-73
2023/07/15 19:13:21;;;;;;;7.05;3.30;;;;;;;31.44;39.31;100166.86;5024122;57;1140838;-72
2023/07/15 19:18:26;;;;;;;25.68;6.47;;;;;;;31.14;40.73;100163.94;5010019;57;1138654;-71
2023/07/15 19:23:32;;;;;;;9.10;6.30;;;;;;;30.88;41.53;100169.70;5042952;57;1140657;-72
2023/07/15 19:28:38;;;;;;;17.67;8.80;;;;;;;30.82;42.37;100172.13;5032043;57;1139114;-73
2023/07/15 19:33:43;;;;;;;13.22;5.90;;;;;;;30.72;42.86;100166.02;5016272;57;1140904;-71
2023/07/15 19:38:49;;;;;;;6.30;3.62;;;;;;;30.53;43.42;100161.19;5035567;57;1140903;-72
2023/07/15 19:43:55;;;;;;;9.73;3.62;;;;;;;30.26;44.83;100157.08;5022664;57;1138668;-72
2023/07/15 19:49:00;;;;;;;7.43;3.73;;;;;;;30.06;45.60;100150.89;5020251;57;1139155;-73
2023/07/15 19:54:06;;;;;;;10.25;3.70;;;;;;;29.84;46.33;100150.86;5018644;56;1138932;-72
2023/07/15 19:59:12;;;;;;;4.43;4.03;;;;;;;29.69;46.87;100143.86;5028586;57;1140924;-72
2023/07/15 20:04:17;;;;;;;7.87;4.22;;;;;;;29.65;47.01;100147.62;4949207;57;1138984;-72
2023/07/15 20:09:24;;;;;;;10.05;3.30;;;;;;;29.55;47.07;100146.14;4918166;58;1138643;-72
2023/07/15 20:14:30;;;;;;;19.65;4.15;;;;;;;29.45;47.21;100152.00;4985575;57;1140978;-72
2023/07/15 20:19:36;;;;;;;11.43;3.17;;;;;;;29.48;47.13;100149.60;4977334;57;1140631;-72
2023/07/15 20:24:41;;;;;;;7.37;3.70;;;;;;;29.45;46.93;100154.73;4974587;57;1140834;-72
2023/07/15 20:29:47;;;;;;;7.58;4.50;;;;;;;29.31;47.26;100152.87;4937723;58;1138680;-72
2023/07/15 20:34:52;;;;;;;5.72;4.03;;;;;;;29.15;48.14;100156.45;4918109;58;1138989;-72
2023/07/15 20:39:58;;;;;;;9.38;4.95;;;;;;;29.05;48.61;100154.38;4930419;58;1138586;-72
2023/07/15 20:45:04;;;;;;;13.72;7.67;;;;;;;28.97;48.49;100158.89;4998916;57;1138777;-74
2023/07/15 20:50:10;;;;;;;9.13;5.42;;;;;;;28.87;48.60;100151.39;4993760;57;1140943;-73
2023/07/15 20:55:16;;;;;;;5.25;4.70;;;;;;;28.79;48.76;100146.34;4998815;57;1138631;-73
2023/07/15 21:00:24;;;;;;;8.30;4.65;;;;;;;28.69;48.68;100139.36;4985462;57;1138777;-73
2023/07/15 21:05:30;;;;;;;8.68;4.62;;;;;;;28.52;48.83;100147.50;4996949;57;1138630;-72
2023/07/15 21:10:36;;;;;;;8.15;4.40;;;;;;;28.44;48.69;100138.36;5019552;57;1138760;-73
2023/07/15 21:15:41;;;;;;;8.30;4.05;;;;;;;28.46;48.56;100147.64;5019361;57;1138900;-72
2023/07/15 21:20:48;;;;;;;7.37;3.80;;;;;;;28.43;48.16;100137.24;5034212;57;1139117;-73
2023/07/15 21:25:55;;;;;;;6.94;4.00;;;;;;;28.40;47.99;100141.30;5033078;57;1138651;-75
2023/07/15 21:31:01;;;;;;;5.17;4.27;;;;;;;28.32;47.63;100134.35;5006597;56;1138950;-73
2023/07/15 21:36:07;;;;;;;9.03;3.97;;;;;;;28.24;47.70;100137.48;5019797;57;1139066;-72
2023/07/15 21:41:12;;;;;;;11.10;4.20;;;;;;;28.18;47.72;100129.43;4994460;57;1138993;-72
2023/07/15 21:46:18;;;;;;;5.25;3.60;;;;;;;28.03;47.89;100137.30;5006762;57;1140968;-72
2023/07/15 21:51:24;;;;;;;10.55;3.67;;;;;;;27.89;47.74;100125.88;4996066;57;1138579;-72
2023/07/15 21:56:29;;;;;;;5.60;3.00;;;;;;;27.51;46.57;100114.19;4958006;57;1140974;-72
2023/07/15 22:01:35;;;;;;;5.70;3.37;;;;;;;27.51;46.57;100114.19;4946256;57;1138665;-72
2023/07/15 22:06:40;;;;;;;8.75;3.47;;;;;;;27.52;46.63;100130.78;4961830;57;1138674;-72
2023/07/15 22:11:46;;;;;;;6.97;3.15;;;;;;;27.50;46.87;100134.30;4981637;56;1138785;-73
2023/07/15 22:16:52;;;;;;;3.63;3.30;;;;;;;27.48;46.66;100141.33;5014515;56;1138724;-72
2023/07/15 22:21:57;;;;;;;11.15;3.30;;;;;;;27.45;46.63;100136.37;5011431;56;1138693;-72
2023/07/15 22:27:04;;;;;;;9.85;3.40;;;;;;;27.37;46.73;100126.38;5049889;56;1140803;-74
2023/07/15 22:32:10;;;;;;;3.75;3.00;;;;;;;27.30;46.89;100119.20;5064316;56;1138790;-72
2023/07/15 22:37:16;;;;;;;3.87;3.58;;;;;;;27.16;46.36;100108.30;5043085;56;1138581;-72
2023/07/15 22:42:21;;;;;;;3.62;2.92;;;;;;;27.03;46.12;100108.55;5043376;56;1138849;-72
2023/07/15 22:47:27;;;;;;;5.37;2.75;;;;;;;26.94;46.08;100101.80;5054050;57;1138923;-72
2023/07/15 22:52:33;;;;;;;5.40;3.30;;;;;;;26.90;46.19;100091.91;4961592;57;1138723;-73
2023/07/15 22:57:38;;;;;;;12.30;3.17;;;;;;;26.84;46.21;100094.77;5096560;56;1138756;-72
2023/07/15 23:02:44;;;;;;;11.95;3.20;;;;;;;26.77;46.53;100085.36;5153656;56;1140965;-72
2023/07/15 23:07:50;;;;;;;8.73;3.55;;;;;;;26.68;46.73;100085.96;5055751;56;1140980;-73